sensor_id;sensor_type;location;lat;lon;timestamp;P1;durP1;ratioP1;P2;durP2;ratioP2
10645;SDS011;5371;49.782;9.932;2024-03-23T00:52:16;7.53;;;6.28;;
10645;SDS011;5371;49.782;9.932;2024-03-23T00:54:44;10.48;;;6.47;;
10645;SDS011;5371;49.782;9.932;2024-03-23T00:57:09;11.88;;;6.53;;
10645;SDS011;5371;49.782;9.932;2024-03-23T00:59:36;8.38;;;6.50;;
10645;SDS011;5371;49.782;9.932;2024-03-23T01:02:02;9.68;;;6.53;;
10645;SDS011;5371;49.782;9.932;2024-03-23T01:04:29;8.93;;;6.80;;
10645;SDS011;5371;49.782;9.932;2024-03-23T01:06:55;7.70;;;6.88;;
10645;SDS011;5371;49.782;9.932;2024-03-23T01:09:24;8.00;;;6.45;;
10645;SDS011;5371;49.782;9.932;2024-03-23T01:11:50;10.30;;;6.38;;
10645;SDS011;5371;49.782;9.932;2024-03-23T01:14:17;8.82;;;6.45;;
10645;SDS011;5371;49.782;9.932;2024-03-23T01:16:42;8.60;;;6.45;;
10645;SDS011;5371;49.782;9.932;2024-03-23T01:19:09;9.60;;;6.65;;
10645;SDS011;5371;49.782;9.932;2024-03-23T01:21:35;9.52;;;6.55;;
10645;SDS011;5371;49.782;9.932;2024-03-23T01:24:02;9.00;;;6.60;;
10645;SDS011;5371;49.782;9.932;2024-03-23T01:26:30;8.18;;;6.35;;
10645;SDS011;5371;49.782;9.932;2024-03-23T01:28:57;7.53;;;6.37;;
10645;SDS011;5371;49.782;9.932;2024-03-23T01:31:23;9.43;;;6.60;;
10645;SDS011;5371;49.782;9.932;2024-03-23T01:33:50;8.25;;;6.47;;
10645;SDS011;5371;49.782;9.932;2024-03-23T01:36:16;10.07;;;6.70;;
10645;SDS011;5371;49.782;9.932;2024-03-23T01:38:43;9.65;;;6.60;;
10645;SDS011;5371;49.782;9.932;2024-03-23T01:41:09;8.93;;;6.55;;
10645;SDS011;5371;49.782;9.932;2024-03-23T01:43:38;10.37;;;6.53;;
10645;SDS011;5371;49.782;9.932;2024-03-23T01:46:04;9.30;;;6.80;;
10645;SDS011;5371;49.782;9.932;2024-03-23T01:48:31;9.87;;;7.27;;
10645;SDS011;5371;49.782;9.932;2024-03-23T01:50:57;8.97;;;7.20;;
10645;SDS011;5371;49.782;9.932;2024-03-23T01:53:24;8.93;;;6.60;;
10645;SDS011;5371;49.782;9.932;2024-03-23T01:55:50;10.52;;;6.82;;
10645;SDS011;5371;49.782;9.932;2024-03-23T01:58:17;10.93;;;7.17;;
10645;SDS011;5371;49.782;9.932;2024-03-23T02:00:45;7.40;;;6.55;;
10645;SDS011;5371;49.782;9.932;2024-03-23T02:03:24;9.38;;;6.47;;
10645;SDS011;5371;49.782;9.932;2024-03-23T02:05:50;7.00;;;6.30;;
10645;SDS011;5371;49.782;9.932;2024-03-23T02:08:18;9.00;;;6.40;;
10645;SDS011;5371;49.782;9.932;2024-03-23T02:10:45;9.55;;;6.50;;
10645;SDS011;5371;49.782;9.932;2024-03-23T02:13:12;8.85;;;6.57;;
10645;SDS011;5371;49.782;9.932;2024-03-23T02:15:39;10.90;;;7.00;;
10645;SDS011;5371;49.782;9.932;2024-03-23T02:18:08;9.77;;;7.40;;
10645;SDS011;5371;49.782;9.932;2024-03-23T02:20:34;10.63;;;7.13;;
10645;SDS011;5371;49.782;9.932;2024-03-23T02:23:03;8.93;;;7.13;;
10645;SDS011;5371;49.782;9.932;2024-03-23T02:25:31;11.25;;;7.00;;
10645;SDS011;5371;49.782;9.932;2024-03-23T02:27:58;8.00;;;7.20;;
10645;SDS011;5371;49.782;9.932;2024-03-23T02:30:24;9.13;;;6.95;;
10645;SDS011;5371;49.782;9.932;2024-03-23T02:32:52;10.90;;;7.05;;
10645;SDS011;5371;49.782;9.932;2024-03-23T02:35:18;9.05;;;6.63;;
10645;SDS011;5371;49.782;9.932;2024-03-23T02:37:45;8.75;;;7.00;;
10645;SDS011;5371;49.782;9.932;2024-03-23T02:40:13;8.00;;;6.63;;
10645;SDS011;5371;49.782;9.932;2024-03-23T02:42:40;8.45;;;6.68;;
10645;SDS011;5371;49.782;9.932;2024-03-23T02:45:06;10.45;;;7.85;;
10645;SDS011;5371;49.782;9.932;2024-03-23T02:47:33;10.15;;;7.30;;
10645;SDS011;5371;49.782;9.932;2024-03-23T02:49:59;10.77;;;6.95;;
10645;SDS011;5371;49.782;9.932;2024-03-23T02:52:26;10.10;;;6.93;;
10645;SDS011;5371;49.782;9.932;2024-03-23T02:54:52;9.45;;;6.70;;
10645;SDS011;5371;49.782;9.932;2024-03-23T02:57:20;9.57;;;6.82;;
10645;SDS011;5371;49.782;9.932;2024-03-23T02:59:47;9.35;;;7.07;;
10645;SDS011;5371;49.782;9.932;2024-03-23T03:02:13;9.20;;;6.88;;
10645;SDS011;5371;49.782;9.932;2024-03-23T03:04:41;9.93;;;6.35;;
10645;SDS011;5371;49.782;9.932;2024-03-23T03:07:07;7.72;;;6.45;;
10645;SDS011;5371;49.782;9.932;2024-03-23T03:09:34;8.63;;;7.15;;
10645;SDS011;5371;49.782;9.932;2024-03-23T03:12:01;8.68;;;6.78;;
10645;SDS011;5371;49.782;9.932;2024-03-23T03:14:29;9.18;;;6.63;;
10645;SDS011;5371;49.782;9.932;2024-03-23T03:16:55;10.55;;;7.28;;
10645;SDS011;5371;49.782;9.932;2024-03-23T03:19:22;10.07;;;7.53;;
10645;SDS011;5371;49.782;9.932;2024-03-23T03:21:48;9.82;;;7.20;;
10645;SDS011;5371;49.782;9.932;2024-03-23T03:24:15;10.52;;;7.10;;
10645;SDS011;5371;49.782;9.932;2024-03-23T03:26:42;9.63;;;7.50;;
10645;SDS011;5371;49.782;9.932;2024-03-23T03:29:09;10.85;;;7.25;;
10645;SDS011;5371;49.782;9.932;2024-03-23T03:31:37;10.95;;;7.18;;
10645;SDS011;5371;49.782;9.932;2024-03-23T03:34:03;8.82;;;7.65;;
10645;SDS011;5371;49.782;9.932;2024-03-23T03:36:30;11.35;;;7.50;;
10645;SDS011;5371;49.782;9.932;2024-03-23T03:38:57;12.10;;;7.70;;
10645;SDS011;5371;49.782;9.932;2024-03-23T03:41:22;10.70;;;7.95;;
10645;SDS011;5371;49.782;9.932;2024-03-23T03:43:49;9.13;;;7.68;;
10645;SDS011;5371;49.782;9.932;2024-03-23T03:46:15;12.48;;;8.63;;
10645;SDS011;5371;49.782;9.932;2024-03-23T03:48:43;9.55;;;8.55;;
10645;SDS011;5371;49.782;9.932;2024-03-23T03:51:10;11.10;;;8.30;;
10645;SDS011;5371;49.782;9.932;2024-03-23T03:53:37;11.15;;;8.20;;
10645;SDS011;5371;49.782;9.932;2024-03-23T03:56:03;8.73;;;7.57;;
10645;SDS011;5371;49.782;9.932;2024-03-23T03:58:30;12.52;;;8.13;;
10645;SDS011;5371;49.782;9.932;2024-03-23T04:00:56;9.20;;;8.00;;
10645;SDS011;5371;49.782;9.932;2024-03-23T04:03:23;12.32;;;8.45;;
10645;SDS011;5371;49.782;9.932;2024-03-23T04:05:53;8.85;;;7.78;;
10645;SDS011;5371;49.782;9.932;2024-03-23T04:08:21;9.50;;;8.30;;
10645;SDS011;5371;49.782;9.932;2024-03-23T04:10:47;8.95;;;7.82;;
10645;SDS011;5371;49.782;9.932;2024-03-23T04:13:14;10.90;;;8.07;;
10645;SDS011;5371;49.782;9.932;2024-03-23T04:15:40;10.20;;;7.82;;
10645;SDS011;5371;49.782;9.932;2024-03-23T04:18:07;10.30;;;7.75;;
10645;SDS011;5371;49.782;9.932;2024-03-23T04:20:33;10.00;;;7.57;;
10645;SDS011;5371;49.782;9.932;2024-03-23T04:23:01;9.30;;;7.90;;
10645;SDS011;5371;49.782;9.932;2024-03-23T04:25:27;10.95;;;7.85;;
10645;SDS011;5371;49.782;9.932;2024-03-23T04:27:54;10.30;;;7.65;;
10645;SDS011;5371;49.782;9.932;2024-03-23T04:30:20;13.15;;;8.13;;
10645;SDS011;5371;49.782;9.932;2024-03-23T04:32:48;9.65;;;7.82;;
10645;SDS011;5371;49.782;9.932;2024-03-23T04:35:15;10.88;;;7.50;;
10645;SDS011;5371;49.782;9.932;2024-03-23T04:37:42;10.15;;;7.70;;
10645;SDS011;5371;49.782;9.932;2024-03-23T04:40:10;9.85;;;7.68;;
10645;SDS011;5371;49.782;9.932;2024-03-23T04:42:37;9.70;;;7.85;;
10645;SDS011;5371;49.782;9.932;2024-03-23T04:45:05;9.52;;;8.00;;
10645;SDS011;5371;49.782;9.932;2024-03-23T04:47:32;10.48;;;7.43;;
10645;SDS011;5371;49.782;9.932;2024-03-23T04:50:02;11.73;;;7.93;;
10645;SDS011;5371;49.782;9.932;2024-03-23T04:52:29;8.95;;;7.28;;
10645;SDS011;5371;49.782;9.932;2024-03-23T04:54:57;10.05;;;8.02;;
10645;SDS011;5371;49.782;9.932;2024-03-23T04:57:26;10.10;;;7.60;;
10645;SDS011;5371;49.782;9.932;2024-03-23T04:59:52;10.82;;;7.70;;
10645;SDS011;5371;49.782;9.932;2024-03-23T05:02:19;10.93;;;7.63;;
10645;SDS011;5371;49.782;9.932;2024-03-23T05:04:47;9.43;;;7.63;;
10645;SDS011;5371;49.782;9.932;2024-03-23T05:07:13;9.65;;;7.68;;
10645;SDS011;5371;49.782;9.932;2024-03-23T05:09:40;10.93;;;8.25;;
10645;SDS011;5371;49.782;9.932;2024-03-23T05:12:06;9.13;;;8.00;;
10645;SDS011;5371;49.782;9.932;2024-03-23T05:14:35;9.13;;;7.47;;
10645;SDS011;5371;49.782;9.932;2024-03-23T05:17:01;10.45;;;7.88;;
10645;SDS011;5371;49.782;9.932;2024-03-23T05:19:28;10.50;;;8.10;;
10645;SDS011;5371;49.782;9.932;2024-03-23T05:21:54;8.90;;;7.63;;
10645;SDS011;5371;49.782;9.932;2024-03-23T05:24:21;10.65;;;7.32;;
10645;SDS011;5371;49.782;9.932;2024-03-23T05:26:47;9.27;;;7.28;;
10645;SDS011;5371;49.782;9.932;2024-03-23T05:29:14;10.52;;;7.68;;
10645;SDS011;5371;49.782;9.932;2024-03-23T05:31:43;11.00;;;7.55;;
10645;SDS011;5371;49.782;9.932;2024-03-23T05:34:10;10.57;;;7.60;;
10645;SDS011;5371;49.782;9.932;2024-03-23T05:36:36;9.50;;;8.02;;
10645;SDS011;5371;49.782;9.932;2024-03-23T05:39:03;10.02;;;7.90;;
10645;SDS011;5371;49.782;9.932;2024-03-23T05:41:29;9.25;;;7.47;;
10645;SDS011;5371;49.782;9.932;2024-03-23T05:43:56;9.95;;;7.43;;
10645;SDS011;5371;49.782;9.932;2024-03-23T05:46:22;9.45;;;7.35;;
10645;SDS011;5371;49.782;9.932;2024-03-23T05:48:51;10.18;;;7.93;;
10645;SDS011;5371;49.782;9.932;2024-03-23T05:51:25;9.98;;;8.07;;
10645;SDS011;5371;49.782;9.932;2024-03-23T05:53:52;11.00;;;7.65;;
10645;SDS011;5371;49.782;9.932;2024-03-23T05:56:19;10.13;;;7.47;;
10645;SDS011;5371;49.782;9.932;2024-03-23T05:58:46;10.38;;;7.93;;
10645;SDS011;5371;49.782;9.932;2024-03-23T06:01:12;12.98;;;7.57;;
10645;SDS011;5371;49.782;9.932;2024-03-23T06:03:39;11.65;;;7.75;;
10645;SDS011;5371;49.782;9.932;2024-03-23T06:06:06;11.70;;;8.10;;
10645;SDS011;5371;49.782;9.932;2024-03-23T06:08:37;12.05;;;7.32;;
10645;SDS011;5371;49.782;9.932;2024-03-23T06:11:03;11.68;;;6.88;;
10645;SDS011;5371;49.782;9.932;2024-03-23T06:13:31;9.48;;;6.97;;
10645;SDS011;5371;49.782;9.932;2024-03-23T06:15:57;8.80;;;6.38;;
10645;SDS011;5371;49.782;9.932;2024-03-23T06:18:24;7.22;;;5.20;;
10645;SDS011;5371;49.782;9.932;2024-03-23T06:20:50;8.93;;;5.60;;
10645;SDS011;5371;49.782;9.932;2024-03-23T06:23:18;7.28;;;5.05;;
10645;SDS011;5371;49.782;9.932;2024-03-23T06:25:45;6.15;;;4.93;;
10645;SDS011;5371;49.782;9.932;2024-03-23T06:28:12;6.82;;;5.20;;
10645;SDS011;5371;49.782;9.932;2024-03-23T06:30:39;6.03;;;4.88;;
10645;SDS011;5371;49.782;9.932;2024-03-23T06:33:06;5.82;;;4.55;;
10645;SDS011;5371;49.782;9.932;2024-03-23T06:35:32;6.25;;;4.70;;
10645;SDS011;5371;49.782;9.932;2024-03-23T06:37:59;7.13;;;4.70;;
10645;SDS011;5371;49.782;9.932;2024-03-23T06:40:26;6.82;;;4.32;;
10645;SDS011;5371;49.782;9.932;2024-03-23T06:42:53;6.40;;;4.63;;
10645;SDS011;5371;49.782;9.932;2024-03-23T06:45:19;6.45;;;4.97;;
10645;SDS011;5371;49.782;9.932;2024-03-23T06:47:48;6.00;;;4.32;;
10645;SDS011;5371;49.782;9.932;2024-03-23T06:50:15;5.93;;;4.35;;
10645;SDS011;5371;49.782;9.932;2024-03-23T06:52:42;6.13;;;4.20;;
10645;SDS011;5371;49.782;9.932;2024-03-23T06:55:08;6.00;;;4.35;;
10645;SDS011;5371;49.782;9.932;2024-03-23T06:57:36;5.78;;;4.28;;
10645;SDS011;5371;49.782;9.932;2024-03-23T07:00:02;5.47;;;4.32;;
10645;SDS011;5371;49.782;9.932;2024-03-23T07:02:30;5.60;;;4.20;;
10645;SDS011;5371;49.782;9.932;2024-03-23T07:04:56;4.88;;;3.47;;
10645;SDS011;5371;49.782;9.932;2024-03-23T07:07:23;4.35;;;3.05;;
10645;SDS011;5371;49.782;9.932;2024-03-23T07:09:49;3.47;;;2.92;;
10645;SDS011;5371;49.782;9.932;2024-03-23T07:12:16;2.85;;;2.55;;
10645;SDS011;5371;49.782;9.932;2024-03-23T07:14:43;3.58;;;2.78;;
10645;SDS011;5371;49.782;9.932;2024-03-23T07:17:10;3.05;;;2.15;;
10645;SDS011;5371;49.782;9.932;2024-03-23T07:19:36;2.90;;;1.75;;
10645;SDS011;5371;49.782;9.932;2024-03-23T07:22:03;1.90;;;1.70;;
10645;SDS011;5371;49.782;9.932;2024-03-23T07:24:29;1.80;;;1.27;;
10645;SDS011;5371;49.782;9.932;2024-03-23T07:26:58;1.95;;;1.52;;
10645;SDS011;5371;49.782;9.932;2024-03-23T07:29:24;1.33;;;1.10;;
10645;SDS011;5371;49.782;9.932;2024-03-23T07:31:52;1.70;;;1.30;;
10645;SDS011;5371;49.782;9.932;2024-03-23T07:34:18;3.05;;;1.10;;
10645;SDS011;5371;49.782;9.932;2024-03-23T07:36:45;1.50;;;1.13;;
10645;SDS011;5371;49.782;9.932;2024-03-23T07:39:11;1.20;;;1.10;;
10645;SDS011;5371;49.782;9.932;2024-03-23T07:41:38;1.07;;;0.97;;
10645;SDS011;5371;49.782;9.932;2024-03-23T07:44:04;1.10;;;1.00;;
10645;SDS011;5371;49.782;9.932;2024-03-23T07:46:31;1.02;;;0.80;;
10645;SDS011;5371;49.782;9.932;2024-03-23T07:48:58;1.03;;;0.70;;
10645;SDS011;5371;49.782;9.932;2024-03-23T07:51:26;0.70;;;0.67;;
10645;SDS011;5371;49.782;9.932;2024-03-23T07:53:52;2.03;;;0.80;;
10645;SDS011;5371;49.782;9.932;2024-03-23T07:56:19;3.35;;;0.60;;
10645;SDS011;5371;49.782;9.932;2024-03-23T07:58:46;0.50;;;0.50;;
10645;SDS011;5371;49.782;9.932;2024-03-23T08:01:14;0.80;;;0.70;;
10645;SDS011;5371;49.782;9.932;2024-03-23T08:03:41;0.50;;;0.50;;
10645;SDS011;5371;49.782;9.932;2024-03-23T08:06:11;0.40;;;0.40;;
10645;SDS011;5371;49.782;9.932;2024-03-23T08:08:38;0.35;;;0.35;;
10645;SDS011;5371;49.782;9.932;2024-03-23T08:11:05;0.38;;;0.32;;
10645;SDS011;5371;49.782;9.932;2024-03-23T08:13:31;1.20;;;0.50;;
10645;SDS011;5371;49.782;9.932;2024-03-23T08:15:59;0.30;;;0.30;;
10645;SDS011;5371;49.782;9.932;2024-03-23T08:18:25;0.37;;;0.37;;
10645;SDS011;5371;49.782;9.932;2024-03-23T08:20:56;0.50;;;0.32;;
10645;SDS011;5371;49.782;9.932;2024-03-23T08:23:24;0.20;;;0.20;;
10645;SDS011;5371;49.782;9.932;2024-03-23T08:25:51;0.32;;;0.32;;
10645;SDS011;5371;49.782;9.932;2024-03-23T08:28:17;0.40;;;0.40;;
10645;SDS011;5371;49.782;9.932;2024-03-23T08:30:44;0.40;;;0.40;;
10645;SDS011;5371;49.782;9.932;2024-03-23T08:33:10;0.50;;;0.50;;
10645;SDS011;5371;49.782;9.932;2024-03-23T08:35:37;0.40;;;0.40;;
10645;SDS011;5371;49.782;9.932;2024-03-23T08:38:04;0.30;;;0.30;;
10645;SDS011;5371;49.782;9.932;2024-03-23T08:40:32;0.40;;;0.40;;
10645;SDS011;5371;49.782;9.932;2024-03-23T08:42:58;0.60;;;0.60;;
10645;SDS011;5371;49.782;9.932;2024-03-23T08:45:25;0.50;;;0.50;;
10645;SDS011;5371;49.782;9.932;2024-03-23T08:47:51;1.15;;;0.80;;
10645;SDS011;5371;49.782;9.932;2024-03-23T08:50:18;0.30;;;0.30;;
10645;SDS011;5371;49.782;9.932;2024-03-23T08:52:44;0.60;;;0.60;;
10645;SDS011;5371;49.782;9.932;2024-03-23T08:55:11;2.63;;;0.60;;
10645;SDS011;5371;49.782;9.932;2024-03-23T08:57:38;1.17;;;0.60;;
10645;SDS011;5371;49.782;9.932;2024-03-23T09:00:05;1.23;;;0.70;;
10645;SDS011;5371;49.782;9.932;2024-03-23T09:02:35;1.63;;;0.70;;
10645;SDS011;5371;49.782;9.932;2024-03-23T09:05:02;1.50;;;1.00;;
10645;SDS011;5371;49.782;9.932;2024-03-23T09:07:30;1.63;;;1.00;;
10645;SDS011;5371;49.782;9.932;2024-03-23T09:09:57;1.65;;;0.80;;
10645;SDS011;5371;49.782;9.932;2024-03-23T09:12:23;1.45;;;0.90;;
10645;SDS011;5371;49.782;9.932;2024-03-23T09:14:51;2.17;;;0.80;;
10645;SDS011;5371;49.782;9.932;2024-03-23T09:17:18;0.93;;;0.80;;
10645;SDS011;5371;49.782;9.932;2024-03-23T09:19:45;1.73;;;0.80;;
10645;SDS011;5371;49.782;9.932;2024-03-23T09:22:11;0.82;;;0.80;;
10645;SDS011;5371;49.782;9.932;2024-03-23T09:24:38;1.65;;;1.10;;
10645;SDS011;5371;49.782;9.932;2024-03-23T09:27:04;1.30;;;1.00;;
10645;SDS011;5371;49.782;9.932;2024-03-23T09:29:31;3.40;;;1.50;;
10645;SDS011;5371;49.782;9.932;2024-03-23T09:31:59;1.95;;;1.20;;
10645;SDS011;5371;49.782;9.932;2024-03-23T09:34:26;2.42;;;1.25;;
10645;SDS011;5371;49.782;9.932;2024-03-23T09:36:52;3.78;;;1.10;;
10645;SDS011;5371;49.782;9.932;2024-03-23T09:39:19;1.45;;;1.10;;
10645;SDS011;5371;49.782;9.932;2024-03-23T09:41:45;2.17;;;1.40;;
10645;SDS011;5371;49.782;9.932;2024-03-23T09:44:12;3.10;;;1.17;;
10645;SDS011;5371;49.782;9.932;2024-03-23T09:46:38;4.43;;;1.38;;
10645;SDS011;5371;49.782;9.932;2024-03-23T09:49:08;3.05;;;1.27;;
10645;SDS011;5371;49.782;9.932;2024-03-23T09:51:35;5.40;;;1.65;;
10645;SDS011;5371;49.782;9.932;2024-03-23T09:54:05;3.30;;;1.60;;
10645;SDS011;5371;49.782;9.932;2024-03-23T09:56:31;3.63;;;1.48;;
10645;SDS011;5371;49.782;9.932;2024-03-23T09:59:01;3.60;;;1.38;;
10645;SDS011;5371;49.782;9.932;2024-03-23T10:01:29;2.90;;;1.40;;
10645;SDS011;5371;49.782;9.932;2024-03-23T10:03:56;2.38;;;1.15;;
10645;SDS011;5371;49.782;9.932;2024-03-23T10:06:24;3.05;;;1.70;;
10645;SDS011;5371;49.782;9.932;2024-03-23T10:08:53;2.97;;;1.55;;
10645;SDS011;5371;49.782;9.932;2024-03-23T10:11:20;4.88;;;1.67;;
10645;SDS011;5371;49.782;9.932;2024-03-23T10:13:48;4.47;;;1.70;;
10645;SDS011;5371;49.782;9.932;2024-03-23T10:16:20;3.00;;;1.67;;
10645;SDS011;5371;49.782;9.932;2024-03-23T10:18:48;5.50;;;1.80;;
10645;SDS011;5371;49.782;9.932;2024-03-23T10:21:15;3.03;;;1.45;;
10645;SDS011;5371;49.782;9.932;2024-03-23T10:23:44;3.80;;;1.67;;
10645;SDS011;5371;49.782;9.932;2024-03-23T10:26:14;2.00;;;1.50;;
10645;SDS011;5371;49.782;9.932;2024-03-23T10:28:50;3.33;;;1.70;;
10645;SDS011;5371;49.782;9.932;2024-03-23T10:31:17;3.60;;;1.73;;
10645;SDS011;5371;49.782;9.932;2024-03-23T10:33:44;2.63;;;1.58;;
10645;SDS011;5371;49.782;9.932;2024-03-23T10:36:11;4.10;;;1.80;;
10645;SDS011;5371;49.782;9.932;2024-03-23T10:38:39;4.03;;;2.00;;
10645;SDS011;5371;49.782;9.932;2024-03-23T10:41:08;4.47;;;1.92;;
10645;SDS011;5371;49.782;9.932;2024-03-23T10:43:35;4.38;;;1.80;;
10645;SDS011;5371;49.782;9.932;2024-03-23T10:46:01;5.05;;;2.00;;
10645;SDS011;5371;49.782;9.932;2024-03-23T10:48:28;4.47;;;2.13;;
10645;SDS011;5371;49.782;9.932;2024-03-23T10:50:54;4.25;;;2.10;;
10645;SDS011;5371;49.782;9.932;2024-03-23T10:53:22;7.68;;;2.30;;
10645;SDS011;5371;49.782;9.932;2024-03-23T10:55:51;4.22;;;2.20;;
10645;SDS011;5371;49.782;9.932;2024-03-23T10:58:19;5.53;;;2.47;;
10645;SDS011;5371;49.782;9.932;2024-03-23T11:00:49;6.35;;;2.28;;
10645;SDS011;5371;49.782;9.932;2024-03-23T11:03:32;4.50;;;2.28;;
10645;SDS011;5371;49.782;9.932;2024-03-23T11:05:59;5.32;;;2.40;;
10645;SDS011;5371;49.782;9.932;2024-03-23T11:08:30;5.50;;;2.40;;
10645;SDS011;5371;49.782;9.932;2024-03-23T11:13:41;4.05;;;2.00;;
10645;SDS011;5371;49.782;9.932;2024-03-23T11:16:13;7.18;;;2.40;;
10645;SDS011;5371;49.782;9.932;2024-03-23T11:18:41;5.07;;;2.20;;
10645;SDS011;5371;49.782;9.932;2024-03-23T11:21:09;5.38;;;2.00;;
10645;SDS011;5371;49.782;9.932;2024-03-23T11:23:36;4.90;;;2.42;;
10645;SDS011;5371;49.782;9.932;2024-03-23T11:26:02;6.20;;;2.10;;
10645;SDS011;5371;49.782;9.932;2024-03-23T11:28:30;5.53;;;1.98;;
10645;SDS011;5371;49.782;9.932;2024-03-23T11:30:57;4.78;;;2.20;;
10645;SDS011;5371;49.782;9.932;2024-03-23T11:33:24;5.32;;;2.00;;
10645;SDS011;5371;49.782;9.932;2024-03-23T11:35:50;3.80;;;1.90;;
10645;SDS011;5371;49.782;9.932;2024-03-23T11:38:18;3.92;;;2.08;;
10645;SDS011;5371;49.782;9.932;2024-03-23T11:40:44;7.13;;;2.35;;
10645;SDS011;5371;49.782;9.932;2024-03-23T11:43:12;4.65;;;2.08;;
10645;SDS011;5371;49.782;9.932;2024-03-23T11:45:39;3.67;;;2.17;;
10645;SDS011;5371;49.782;9.932;2024-03-23T11:48:09;3.25;;;2.15;;
10645;SDS011;5371;49.782;9.932;2024-03-23T11:50:39;4.63;;;1.80;;
10645;SDS011;5371;49.782;9.932;2024-03-23T11:53:07;4.18;;;2.20;;
10645;SDS011;5371;49.782;9.932;2024-03-23T11:55:46;3.50;;;1.80;;
10645;SDS011;5371;49.782;9.932;2024-03-23T11:58:14;6.90;;;2.08;;
10645;SDS011;5371;49.782;9.932;2024-03-23T12:00:41;4.57;;;1.80;;
10645;SDS011;5371;49.782;9.932;2024-03-23T12:03:10;5.65;;;2.10;;
10645;SDS011;5371;49.782;9.932;2024-03-23T12:05:36;5.95;;;1.95;;
10645;SDS011;5371;49.782;9.932;2024-03-23T12:08:16;11.75;;;2.25;;
10645;SDS011;5371;49.782;9.932;2024-03-23T12:10:44;6.38;;;1.88;;
10645;SDS011;5371;49.782;9.932;2024-03-23T12:13:12;6.70;;;2.05;;
10645;SDS011;5371;49.782;9.932;2024-03-23T12:15:42;3.05;;;1.70;;
10645;SDS011;5371;49.782;9.932;2024-03-23T12:18:10;5.25;;;2.00;;
10645;SDS011;5371;49.782;9.932;2024-03-23T12:20:38;5.13;;;1.92;;
10645;SDS011;5371;49.782;9.932;2024-03-23T12:23:05;3.58;;;2.00;;
10645;SDS011;5371;49.782;9.932;2024-03-23T12:25:32;4.03;;;1.80;;
10645;SDS011;5371;49.782;9.932;2024-03-23T12:27:58;4.65;;;2.00;;
10645;SDS011;5371;49.782;9.932;2024-03-23T12:30:27;4.15;;;1.83;;
10645;SDS011;5371;49.782;9.932;2024-03-23T12:32:53;4.55;;;2.00;;
10645;SDS011;5371;49.782;9.932;2024-03-23T12:35:22;4.22;;;1.80;;
10645;SDS011;5371;49.782;9.932;2024-03-23T12:37:48;5.18;;;1.60;;
10645;SDS011;5371;49.782;9.932;2024-03-23T12:40:15;3.60;;;1.75;;
10645;SDS011;5371;49.782;9.932;2024-03-23T12:42:41;5.07;;;1.95;;
10645;SDS011;5371;49.782;9.932;2024-03-23T12:45:08;5.78;;;2.25;;
10645;SDS011;5371;49.782;9.932;2024-03-23T12:47:34;5.45;;;2.10;;
10645;SDS011;5371;49.782;9.932;2024-03-23T12:50:01;4.38;;;2.00;;
10645;SDS011;5371;49.782;9.932;2024-03-23T12:52:29;6.55;;;2.13;;
10645;SDS011;5371;49.782;9.932;2024-03-23T12:54:56;7.05;;;2.55;;
10645;SDS011;5371;49.782;9.932;2024-03-23T12:57:23;5.65;;;2.22;;
10645;SDS011;5371;49.782;9.932;2024-03-23T12:59:50;4.85;;;1.98;;
10645;SDS011;5371;49.782;9.932;2024-03-23T13:02:17;4.35;;;1.90;;
10645;SDS011;5371;49.782;9.932;2024-03-23T13:04:45;5.03;;;2.00;;
10645;SDS011;5371;49.782;9.932;2024-03-23T13:07:12;4.53;;;1.90;;
10645;SDS011;5371;49.782;9.932;2024-03-23T13:09:41;4.57;;;1.90;;
10645;SDS011;5371;49.782;9.932;2024-03-23T13:12:07;6.25;;;1.88;;
10645;SDS011;5371;49.782;9.932;2024-03-23T13:14:34;4.97;;;1.90;;
10645;SDS011;5371;49.782;9.932;2024-03-23T13:17:00;3.90;;;1.88;;
10645;SDS011;5371;49.782;9.932;2024-03-23T13:19:29;3.92;;;1.80;;
10645;SDS011;5371;49.782;9.932;2024-03-23T13:21:56;4.65;;;1.90;;
10645;SDS011;5371;49.782;9.932;2024-03-23T13:24:24;4.25;;;2.13;;
10645;SDS011;5371;49.782;9.932;2024-03-23T13:26:51;3.70;;;1.73;;
10645;SDS011;5371;49.782;9.932;2024-03-23T13:29:19;4.72;;;1.65;;
10645;SDS011;5371;49.782;9.932;2024-03-23T13:31:45;4.35;;;1.80;;
10645;SDS011;5371;49.782;9.932;2024-03-23T13:34:12;3.78;;;1.75;;
10645;SDS011;5371;49.782;9.932;2024-03-23T13:36:40;3.22;;;1.67;;
10645;SDS011;5371;49.782;9.932;2024-03-23T13:39:07;4.82;;;1.80;;
10645;SDS011;5371;49.782;9.932;2024-03-23T13:41:37;5.78;;;2.20;;
10645;SDS011;5371;49.782;9.932;2024-03-23T13:44:05;6.45;;;2.17;;
10645;SDS011;5371;49.782;9.932;2024-03-23T13:46:33;5.50;;;1.75;;
10645;SDS011;5371;49.782;9.932;2024-03-23T13:48:59;4.45;;;1.63;;
10645;SDS011;5371;49.782;9.932;2024-03-23T13:51:26;4.10;;;1.83;;
10645;SDS011;5371;49.782;9.932;2024-03-23T13:53:53;5.07;;;1.90;;
10645;SDS011;5371;49.782;9.932;2024-03-23T13:56:20;6.18;;;2.00;;
10645;SDS011;5371;49.782;9.932;2024-03-23T13:58:46;4.88;;;1.88;;
10645;SDS011;5371;49.782;9.932;2024-03-23T14:01:15;3.38;;;2.05;;
10645;SDS011;5371;49.782;9.932;2024-03-23T14:03:44;5.15;;;2.05;;
10645;SDS011;5371;49.782;9.932;2024-03-23T14:06:11;4.63;;;1.80;;
10645;SDS011;5371;49.782;9.932;2024-03-23T14:08:39;3.47;;;1.83;;
10645;SDS011;5371;49.782;9.932;2024-03-23T14:11:07;3.97;;;2.00;;
10645;SDS011;5371;49.782;9.932;2024-03-23T14:13:36;5.07;;;2.00;;
10645;SDS011;5371;49.782;9.932;2024-03-23T14:16:04;4.80;;;2.10;;
10645;SDS011;5371;49.782;9.932;2024-03-23T14:18:32;5.63;;;1.70;;
10645;SDS011;5371;49.782;9.932;2024-03-23T14:20:59;7.10;;;1.80;;
10645;SDS011;5371;49.782;9.932;2024-03-23T14:23:26;5.75;;;2.00;;
10645;SDS011;5371;49.782;9.932;2024-03-23T14:25:54;6.10;;;1.80;;
10645;SDS011;5371;49.782;9.932;2024-03-23T14:28:21;3.60;;;1.50;;
10645;SDS011;5371;49.782;9.932;2024-03-23T14:30:48;2.80;;;1.40;;
10645;SDS011;5371;49.782;9.932;2024-03-23T14:33:15;4.20;;;1.48;;
10645;SDS011;5371;49.782;9.932;2024-03-23T14:35:42;3.15;;;1.40;;
10645;SDS011;5371;49.782;9.932;2024-03-23T14:38:09;2.75;;;1.25;;
10645;SDS011;5371;49.782;9.932;2024-03-23T14:40:35;3.72;;;1.50;;
10645;SDS011;5371;49.782;9.932;2024-03-23T14:43:02;3.63;;;1.10;;
10645;SDS011;5371;49.782;9.932;2024-03-23T14:45:29;3.92;;;1.35;;
10645;SDS011;5371;49.782;9.932;2024-03-23T14:47:56;3.50;;;1.27;;
10645;SDS011;5371;49.782;9.932;2024-03-23T14:50:23;3.38;;;1.30;;
10645;SDS011;5371;49.782;9.932;2024-03-23T14:52:52;4.18;;;1.50;;
10645;SDS011;5371;49.782;9.932;2024-03-23T14:55:18;3.03;;;1.40;;
10645;SDS011;5371;49.782;9.932;2024-03-23T14:57:45;4.32;;;1.30;;
10645;SDS011;5371;49.782;9.932;2024-03-23T15:00:12;2.75;;;1.40;;
10645;SDS011;5371;49.782;9.932;2024-03-23T15:02:40;2.10;;;1.17;;
10645;SDS011;5371;49.782;9.932;2024-03-23T15:05:06;2.33;;;1.27;;
10645;SDS011;5371;49.782;9.932;2024-03-23T15:07:35;3.33;;;1.00;;
10645;SDS011;5371;49.782;9.932;2024-03-23T15:10:03;2.60;;;1.17;;
10645;SDS011;5371;49.782;9.932;2024-03-23T15:12:30;4.93;;;1.33;;
10645;SDS011;5371;49.782;9.932;2024-03-23T15:14:58;3.25;;;1.30;;
10645;SDS011;5371;49.782;9.932;2024-03-23T15:17:25;2.85;;;1.13;;
10645;SDS011;5371;49.782;9.932;2024-03-23T15:19:51;2.70;;;1.30;;
10645;SDS011;5371;49.782;9.932;2024-03-23T15:22:19;2.78;;;1.30;;
10645;SDS011;5371;49.782;9.932;2024-03-23T15:24:45;2.78;;;1.40;;
10645;SDS011;5371;49.782;9.932;2024-03-23T15:27:14;3.20;;;1.50;;
10645;SDS011;5371;49.782;9.932;2024-03-23T15:29:40;1.40;;;1.20;;
10645;SDS011;5371;49.782;9.932;2024-03-23T15:32:11;1.55;;;1.00;;
10645;SDS011;5371;49.782;9.932;2024-03-23T15:34:37;2.38;;;1.10;;
10645;SDS011;5371;49.782;9.932;2024-03-23T15:37:04;3.15;;;1.08;;
10645;SDS011;5371;49.782;9.932;2024-03-23T15:39:30;2.35;;;1.00;;
10645;SDS011;5371;49.782;9.932;2024-03-23T15:41:57;1.48;;;1.13;;
10645;SDS011;5371;49.782;9.932;2024-03-23T15:44:25;2.65;;;1.17;;
10645;SDS011;5371;49.782;9.932;2024-03-23T15:46:51;1.60;;;1.20;;
10645;SDS011;5371;49.782;9.932;2024-03-23T15:49:17;2.83;;;1.20;;
10645;SDS011;5371;49.782;9.932;2024-03-23T15:51:44;1.83;;;1.10;;
10645;SDS011;5371;49.782;9.932;2024-03-23T15:54:11;2.45;;;1.20;;